Time;durP1;ratioP1;P1;durP2;ratioP2;P2;SDS_P1;SDS_P2;PMS_P1;PMS_P2;Temp;Humidity;BMP_temperature;BMP_pressure;BME280_temperature;BME280_humidity;BME280_pressure;Samples;Min_cycle;Max_cycle;Signal;HPM_P1;HPM_P2
2024/01/15 00:01:44;;;;;;;8.60;3.60;;;;;;;2.67;57.59;98971.90;105410;1260;59558;-55
2024/01/15 00:04:11;;;;;;;8.60;3.60;;;;;;;2.64;57.52;98972.46;105365;1260;64103;-56
2024/01/15 00:06:39;;;;;;;9.30;4.00;;;;;;;2.62;57.62;98968.31;105377;1257;61835;-56
2024/01/15 00:09:07;;;;;;;12.20;4.40;;;;;;;2.63;57.50;98968.72;105249;1256;63747;-56
2024/01/15 00:11:35;;;;;;;5.50;1.90;;;;;;;2.71;57.39;98967.98;105422;1259;59838;-55
2024/01/15 00:14:03;;;;;;;8.00;3.30;;;;;;;2.79;57.26;98965.88;105248;1254;59733;-58
2024/01/15 00:16:30;;;;;;;10.30;4.80;;;;;;;2.84;57.10;98965.91;105670;1258;64150;-57
2024/01/15 00:18:58;;;;;;;11.20;3.60;;;;;;;2.84;57.10;98968.01;105296;1254;61913;-56
2024/01/15 00:21:27;;;;;;;9.60;3.80;;;;;;;2.81;57.13;98971.27;105708;1259;62437;-56
2024/01/15 00:23:55;;;;;;;10.50;4.20;;;;;;;2.77;57.16;98975.34;105676;1260;59688;-54
2024/01/15 00:26:23;;;;;;;10.70;4.00;;;;;;;2.72;57.22;98976.55;105879;1257;59749;-56
2024/01/15 00:28:50;;;;;;;9.30;4.00;;;;;;;2.63;57.39;98977.92;105246;1257;62931;-57
2024/01/15 00:31:18;;;;;;;10.40;3.20;;;;;;;2.54;57.66;98976.46;105303;1255;61552;-55
2024/01/15 00:33:46;;;;;;;7.80;3.80;;;;;;;2.59;57.61;98977.83;105330;1257;63729;-55
2024/01/15 00:36:14;;;;;;;10.70;4.20;;;;;;;2.58;57.76;98973.95;105225;1257;59865;-55
2024/01/15 00:38:44;;;;;;;10.40;3.00;;;;;;;2.55;57.87;98975.55;105327;1260;59746;-56
2024/01/15 00:41:11;;;;;;;11.20;4.00;;;;;;;2.58;57.94;98972.52;105313;1254;62814;-57
2024/01/15 00:43:39;;;;;;;12.80;5.40;;;;;;;2.65;57.94;98972.94;105268;1257;61303;-56
2024/01/15 00:46:07;;;;;;;8.00;3.00;;;;;;;2.70;58.00;98973.48;105301;1260;62506;-56
2024/01/15 00:48:34;;;;;;;8.00;2.90;;;;;;;2.72;58.19;98975.70;105258;1255;59631;-55
2024/01/15 00:51:03;;;;;;;12.60;3.50;;;;;;;2.73;58.28;98981.56;105561;1257;59560;-57
2024/01/15 00:53:31;;;;;;;9.70;3.40;;;;;;;2.71;58.54;98975.64;105561;1257;62857;-59
2024/01/15 00:55:59;;;;;;;9.50;4.40;;;;;;;2.69;58.75;98978.71;105249;1254;61424;-59
2024/01/15 00:58:26;;;;;;;10.80;3.90;;;;;;;2.68;58.68;98977.44;105717;1258;64367;-59
2024/01/15 01:00:55;;;;;;;11.70;5.50;;;;;;;2.64;58.60;98971.66;105298;1259;59777;-60
2024/01/15 01:03:22;;;;;;;11.80;4.60;;;;;;;2.59;58.62;98967.98;105726;1256;59621;-56
2024/01/15 01:05:50;;;;;;;10.60;4.60;;;;;;;2.56;58.49;98964.73;105278;1254;64173;-55
2024/01/15 01:08:18;;;;;;;8.90;3.70;;;;;;;2.54;58.46;98962.98;105271;1259;61517;-55
2024/01/15 01:10:45;;;;;;;11.20;4.30;;;;;;;2.39;58.52;98959.69;105923;1254;63675;-56
2024/01/15 01:13:13;;;;;;;8.30;2.80;;;;;;;2.42;58.49;98959.96;105234;1260;59809;-55
2024/01/15 01:15:41;;;;;;;8.70;3.40;;;;;;;2.41;58.52;98958.81;105375;1257;59666;-56
2024/01/15 01:18:08;;;;;;;8.90;3.40;;;;;;;2.44;58.51;98958.29;105262;1257;64711;-56
2024/01/15 01:20:36;;;;;;;9.20;3.50;;;;;;;2.50;58.49;98958.23;105281;1257;61515;-56
2024/01/15 01:23:05;;;;;;;11.00;4.60;;;;;;;2.52;58.44;98957.26;105456;1257;63964;-56
2024/01/15 01:25:32;;;;;;;9.20;3.20;;;;;;;2.50;58.33;98958.90;105490;1256;59709;-55
2024/01/15 01:28:00;;;;;;;9.90;3.60;;;;;;;2.46;58.05;98955.54;105334;1257;59560;-56
2024/01/15 01:30:27;;;;;;;9.80;3.00;;;;;;;2.40;58.00;98954.89;105279;1260;64226;-56
2024/01/15 01:32:55;;;;;;;8.90;3.00;;;;;;;2.34;57.86;98951.70;105269;1257;61351;-58
2024/01/15 01:35:23;;;;;;;8.40;3.80;;;;;;;2.27;57.74;98951.15;105765;1257;62711;-56
2024/01/15 01:37:50;;;;;;;6.80;2.80;;;;;;;2.21;57.70;98956.59;105876;1260;59688;-56
2024/01/15 01:40:18;;;;;;;8.00;2.80;;;;;;;2.15;57.62;98955.23;105323;1255;59663;-55
2024/01/15 01:42:45;;;;;;;9.40;4.10;;;;;;;2.09;57.72;98954.77;105285;1260;64053;-55
2024/01/15 01:45:13;;;;;;;8.60;2.90;;;;;;;2.01;57.61;98957.36;105255;1257;61276;-57
2024/01/15 01:47:40;;;;;;;10.70;4.10;;;;;;;2.00;57.47;98957.09;105288;1257;63973;-56
2024/01/15 01:50:08;;;;;;;9.30;2.80;;;;;;;2.05;57.41;98955.91;105376;1254;60008;-55
2024/01/15 01:52:36;;;;;;;9.90;2.90;;;;;;;2.13;57.38;98957.30;105257;1256;59554;-55
2024/01/15 01:55:04;;;;;;;9.00;3.40;;;;;;;2.19;57.26;98957.02;105457;1257;64305;-56
2024/01/15 01:57:32;;;;;;;6.90;2.80;;;;;;;2.21;57.11;98958.13;105582;1254;61497;-55
2024/01/15 02:00:01;;;;;;;6.80;3.10;;;;;;;2.19;57.17;98961.37;105274;1264;63886;-56
2024/01/15 02:02:37;;;;;;;7.40;2.80;;;;;;;2.18;57.18;98960.25;105437;1257;59613;-57
2024/01/15 02:05:05;;;;;;;8.10;3.00;;;;;;;2.15;57.11;98960.09;105305;1254;59966;-56
2024/01/15 02:07:34;;;;;;;7.10;2.70;;;;;;;2.12;57.10;98961.52;105471;1260;64558;-57
2024/01/15 02:10:02;;;;;;;10.20;4.30;;;;;;;2.07;57.11;98959.44;105623;1259;60087;-55
2024/01/15 02:12:29;;;;;;;8.30;3.60;;;;;;;2.02;57.16;98957.69;105263;1255;63757;-56
2024/01/15 02:14:57;;;;;;;9.80;4.00;;;;;;;1.99;57.15;98956.48;105276;1254;60534;-56
2024/01/15 02:17:24;;;;;;;6.00;2.80;;;;;;;1.97;57.17;98953.69;105313;1254;60513;-56
2024/01/15 02:19:52;;;;;;;8.30;2.90;;;;;;;1.93;57.28;98948.05;105762;1257;64950;-56
2024/01/15 02:22:20;;;;;;;6.70;2.60;;;;;;;1.95;57.30;98952.63;105894;1258;61522;-56
2024/01/15 02:24:48;;;;;;;6.90;2.30;;;;;;;2.01;57.17;98958.80;105289;1255;63894;-55
2024/01/15 02:27:15;;;;;;;6.20;2.50;;;;;;;2.09;57.14;98959.27;105949;1255;60823;-55
2024/01/15 02:29:43;;;;;;;6.70;2.30;;;;;;;2.16;56.97;98965.37;105298;1254;60568;-56
2024/01/15 02:32:10;;;;;;;7.30;3.20;;;;;;;2.18;56.93;98963.67;105278;1259;64972;-55
2024/01/15 02:34:38;;;;;;;6.70;2.50;;;;;;;2.17;56.94;98969.81;105171;1254;61931;-57
2024/01/15 02:37:06;;;;;;;11.10;5.20;;;;;;;2.17;56.93;98972.78;105323;1257;63738;-56
2024/01/15 02:39:33;;;;;;;10.40;4.80;;;;;;;2.17;56.88;98971.88;105269;1255;60420;-56
2024/01/15 02:42:01;;;;;;;10.50;3.90;;;;;;;2.16;56.61;98969.36;105696;1258;60450;-57
2024/01/15 02:44:28;;;;;;;5.70;2.60;;;;;;;2.13;56.55;98972.50;105343;1254;63708;-55
2024/01/15 02:46:56;;;;;;;9.70;3.00;;;;;;;2.09;56.54;98975.37;105283;1254;61409;-58
2024/01/15 02:49:23;;;;;;;7.30;3.30;;;;;;;2.04;56.52;98971.35;105281;1259;62440;-54
2024/01/15 02:51:51;;;;;;;9.30;3.90;;;;;;;2.01;56.42;98968.98;105288;1257;60536;-60
2024/01/15 02:54:18;;;;;;;8.00;2.60;;;;;;;1.97;56.53;98966.84;105337;1254;60450;-56
2024/01/15 02:56:46;;;;;;;6.50;3.00;;;;;;;2.00;56.44;98957.96;105990;1257;63710;-56
2024/01/15 02:59:14;;;;;;;7.00;2.50;;;;;;;2.08;56.24;98952.75;105250;1258;61405;-56
2024/01/15 03:01:41;;;;;;;7.80;2.50;;;;;;;2.15;56.15;98950.58;105294;1259;62583;-56
2024/01/15 03:04:09;;;;;;;8.40;2.80;;;;;;;2.25;55.92;98943.69;105327;1254;60475;-56
2024/01/15 03:06:37;;;;;;;10.20;3.60;;;;;;;2.30;55.81;98943.83;105589;1251;60472;-56
2024/01/15 03:09:05;;;;;;;12.10;4.00;;;;;;;2.30;55.90;98942.81;105508;1257;65426;-56
2024/01/15 03:11:39;;;;;;;11.10;4.90;;;;;;;2.30;55.76;98945.23;105775;1254;61384;-55
2024/01/15 03:14:07;;;;;;;12.30;4.20;;;;;;;2.29;55.65;98946.55;105699;1251;63714;-55
2024/01/15 03:16:34;;;;;;;10.50;3.80;;;;;;;2.26;55.59;98952.45;105597;1251;61823;-55
2024/01/15 03:19:02;;;;;;;9.00;3.60;;;;;;;2.21;55.61;98950.17;105560;1254;61709;-56
2024/01/15 03:21:30;;;;;;;8.30;2.60;;;;;;;2.19;55.59;98953.27;105517;1254;64995;-54
2024/01/15 03:23:57;;;;;;;8.30;3.60;;;;;;;2.15;55.53;98952.13;105913;1254;62276;-56
2024/01/15 03:26:25;;;;;;;9.30;3.60;;;;;;;2.10;55.61;98948.66;105575;1254;63723;-56
2024/01/15 03:28:53;;;;;;;8.60;3.90;;;;;;;2.09;55.62;98947.20;105547;1257;60473;-55
2024/01/15 03:31:20;;;;;;;8.40;3.10;;;;;;;2.07;55.55;98946.44;105422;1256;60387;-55
2024/01/15 03:33:48;;;;;;;11.30;3.80;;;;;;;2.04;55.60;98942.32;105347;1251;65333;-56
2024/01/15 03:36:16;;;;;;;6.80;2.70;;;;;;;2.07;55.70;98946.98;105413;1257;61448;-57
2024/01/15 03:38:43;;;;;;;7.40;2.90;;;;;;;2.15;55.54;98949.73;105476;1257;63745;-57
2024/01/15 03:41:11;;;;;;;7.70;3.50;;;;;;;2.19;55.39;98949.64;105548;1254;60433;-54
2024/01/15 03:43:39;;;;;;;7.30;3.10;;;;;;;2.19;55.39;98950.84;105592;1256;60388;-56
2024/01/15 03:46:07;;;;;;;8.20;3.50;;;;;;;2.16;55.37;98955.84;105719;1251;65137;-56
2024/01/15 03:48:34;;;;;;;9.90;3.70;;;;;;;2.09;55.46;98959.45;105562;1254;61435;-55
2024/01/15 03:51:03;;;;;;;8.60;3.90;;;;;;;2.02;55.36;98960.98;105749;1257;63728;-55
2024/01/15 03:53:31;;;;;;;9.50;3.30;;;;;;;1.95;55.41;98961.80;105774;1252;60516;-58
2024/01/15 03:55:59;;;;;;;9.50;3.60;;;;;;;1.86;55.40;98961.48;105920;1251;60707;-60
2024/01/15 03:58:26;;;;;;;9.00;3.50;;;;;;;1.78;55.47;98960.31;105534;1255;63653;-61
2024/01/15 04:00:54;;;;;;;8.60;3.40;;;;;;;1.70;55.56;98960.67;106117;1254;61397;-60
2024/01/15 04:03:22;;;;;;;11.50;3.10;;;;;;;1.67;55.68;98958.80;105561;1254;62458;-60
2024/01/15 04:05:51;;;;;;;8.60;3.10;;;;;;;1.66;55.55;98956.80;105535;1253;60424;-59
2024/01/15 04:08:19;;;;;;;8.80;4.00;;;;;;;1.68;55.52;98958.23;106099;1257;60405;-59
2024/01/15 04:10:47;;;;;;;7.30;3.10;;;;;;;1.75;55.44;98956.57;106218;1254;64858;-55
2024/01/15 04:13:14;;;;;;;11.20;4.30;;;;;;;1.81;55.33;98957.16;105606;1254;61377;-57
2024/01/15 04:15:42;;;;;;;8.10;3.50;;;;;;;1.85;55.25;98958.45;105393;1253;66045;-57
2024/01/15 04:18:10;;;;;;;10.10;4.00;;;;;;;1.85;55.34;98966.23;105587;1253;60526;-55
2024/01/15 04:20:38;;;;;;;11.60;5.40;;;;;;;1.83;55.18;98965.02;105648;1251;60625;-56
2024/01/15 04:23:06;;;;;;;14.30;5.90;;;;;;;1.80;55.25;98961.60;105727;1256;64885;-56
2024/01/15 04:25:33;;;;;;;10.90;4.90;;;;;;;1.78;55.21;98963.61;105530;1254;61801;-56
2024/01/15 04:28:01;;;;;;;11.30;5.10;;;;;;;1.75;55.19;98967.60;105908;1254;63763;-57
2024/01/15 04:30:29;;;;;;;24.40;8.00;;;;;;;1.72;55.19;98973.90;105506;1254;60470;-58
2024/01/15 04:32:56;;;;;;;12.70;5.50;;;;;;;1.68;55.26;98974.09;106038;1251;60529;-56
2024/01/15 04:35:24;;;;;;;14.80;7.20;;;;;;;1.66;55.21;98969.39;105670;1257;63644;-55
2024/01/15 04:37:52;;;;;;;13.30;5.40;;;;;;;1.66;55.36;98971.98;105534;1254;61434;-56
2024/01/15 04:40:19;;;;;;;8.20;4.40;;;;;;;1.66;55.28;98976.47;105508;1251;63702;-55
2024/01/15 04:42:47;;;;;;;9.50;3.30;;;;;;;1.71;55.25;98974.73;105584;1252;60587;-56
2024/01/15 04:45:15;;;;;;;7.10;2.50;;;;;;;1.80;55.14;98977.80;105616;1257;60457;-56
2024/01/15 04:47:42;;;;;;;9.40;3.20;;;;;;;1.89;55.07;98980.71;105708;1257;64894;-58
2024/01/15 04:50:10;;;;;;;12.10;5.50;;;;;;;1.92;54.89;98980.82;105664;1257;61405;-55
2024/01/15 04:52:38;;;;;;;7.30;3.10;;;;;;;1.92;54.80;98983.42;105577;1253;63749;-55
2024/01/15 04:55:05;;;;;;;9.60;3.30;;;;;;;1.92;54.81;98994.33;105544;1254;60529;-56
2024/01/15 04:57:33;;;;;;;8.30;3.30;;;;;;;1.90;54.58;98983.90;105736;1254;60564;-55
2024/01/15 05:00:01;;;;;;;9.10;3.80;;;;;;;1.87;54.45;98980.09;105504;1257;64931;-54
2024/01/15 05:02:28;;;;;;;10.80;3.90;;;;;;;1.84;54.61;98978.04;105516;1251;61345;-54
2024/01/15 05:04:56;;;;;;;10.00;3.80;;;;;;;1.83;54.55;98974.47;105624;1251;63731;-54
2024/01/15 05:07:24;;;;;;;7.80;3.60;;;;;;;1.84;54.49;98971.33;106813;1257;60360;-58
2024/01/15 05:09:51;;;;;;;8.10;3.00;;;;;;;1.84;54.40;98970.83;105579;1257;60370;-56
2024/01/15 05:12:19;;;;;;;9.60;3.40;;;;;;;1.81;54.44;98972.53;106867;1254;64997;-57
2024/01/15 05:14:47;;;;;;;8.30;3.10;;;;;;;1.80;54.44;98977.99;105537;1251;61329;-56
2024/01/15 05:17:14;;;;;;;7.90;3.20;;;;;;;1.83;54.16;98973.48;105579;1254;63782;-55
2024/01/15 05:19:42;;;;;;;6.40;2.10;;;;;;;1.91;53.96;98973.83;105541;1254;60465;-56
2024/01/15 05:22:10;;;;;;;8.50;3.30;;;;;;;2.00;53.79;98974.77;105585;1256;60428;-56
2024/01/15 05:24:37;;;;;;;12.40;3.80;;;;;;;2.05;53.73;98980.48;105531;1255;64967;-56
2024/01/15 05:27:05;;;;;;;11.20;4.50;;;;;;;2.07;53.66;98975.19;105713;1256;60385;-56
2024/01/15 05:29:33;;;;;;;21.70;7.10;;;;;;;2.05;53.52;98980.31;105800;1254;63672;-55
2024/01/15 05:32:00;;;;;;;13.90;3.50;;;;;;;2.02;53.43;98975.63;105529;1254;61704;-58
2024/01/15 05:34:29;;;;;;;11.00;3.80;;;;;;;2.01;53.37;98976.77;105542;1256;60364;-55
2024/01/15 05:36:57;;;;;;;11.30;5.00;;;;;;;1.98;53.36;98978.50;105542;1251;63710;-55
2024/01/15 05:39:24;;;;;;;16.90;6.80;;;;;;;1.96;53.39;98981.95;105546;1257;60584;-56
2024/01/15 05:41:52;;;;;;;10.40;3.50;;;;;;;1.92;53.34;98984.81;105527;1251;62468;-59
2024/01/15 05:44:20;;;;;;;9.30;3.90;;;;;;;1.88;53.38;98986.09;105994;1252;60613;-55
2024/01/15 05:46:47;;;;;;;8.40;3.30;;;;;;;1.87;53.26;98987.04;105515;1257;60533;-54
2024/01/15 05:49:15;;;;;;;7.50;2.80;;;;;;;1.88;53.33;98984.20;105673;1251;64953;-55
2024/01/15 05:51:43;;;;;;;5.80;2.30;;;;;;;1.87;53.30;98987.38;105533;1257;61464;-55
2024/01/15 05:54:11;;;;;;;10.70;3.90;;;;;;;1.86;53.22;98991.27;105604;1255;63777;-57
2024/01/15 05:56:38;;;;;;;9.40;3.30;;;;;;;1.87;53.10;98998.44;105493;1255;60703;-56
2024/01/15 05:59:06;;;;;;;11.20;3.90;;;;;;;1.95;52.98;98998.12;105598;1253;60562;-54
2024/01/15 06:01:34;;;;;;;8.90;3.30;;;;;;;2.01;52.73;98996.30;105403;1260;64953;-58
2024/01/15 06:04:02;;;;;;;7.70;2.90;;;;;;;2.05;52.65;98999.18;105490;1253;61501;-57
2024/01/15 06:06:29;;;;;;;11.90;4.10;;;;;;;2.07;52.64;98999.23;106629;1255;62630;-55
2024/01/15 06:08:59;;;;;;;11.40;3.70;;;;;;;2.06;52.58;98998.95;105936;1254;60552;-55
2024/01/15 06:11:30;;;;;;;10.80;3.30;;;;;;;2.05;52.52;98997.10;105491;1256;60469;-55
2024/01/15 06:13:58;;;;;;;10.80;4.70;;;;;;;2.06;52.54;99000.67;105908;1251;64983;-56
2024/01/15 06:16:25;;;;;;;8.00;3.30;;;;;;;2.04;52.41;98999.77;105500;1257;60357;-55
2024/01/15 06:18:53;;;;;;;8.30;3.40;;;;;;;2.00;52.50;98997.38;105486;1254;62485;-55
2024/01/15 06:21:21;;;;;;;16.30;3.20;;;;;;;1.98;52.50;98996.71;105522;1255;60528;-56
2024/01/15 06:23:48;;;;;;;7.60;3.10;;;;;;;1.97;52.66;99003.02;105592;1254;60600;-55
2024/01/15 06:26:16;;;;;;;8.70;3.10;;;;;;;2.00;52.65;99001.04;105521;1257;65537;-56
2024/01/15 06:28:43;;;;;;;6.20;2.90;;;;;;;2.07;52.45;98999.73;106980;1257;61392;-57
2024/01/15 06:31:11;;;;;;;9.10;3.50;;;;;;;2.10;52.23;99005.23;105566;1257;64350;-56
2024/01/15 06:33:39;;;;;;;7.20;2.70;;;;;;;2.09;52.11;99003.41;105374;1259;61117;-55
2024/01/15 06:36:07;;;;;;;7.40;3.20;;;;;;;2.09;52.09;99001.54;105703;1251;61779;-55
2024/01/15 06:38:35;;;;;;;7.80;3.20;;;;;;;2.10;52.12;99006.48;105752;1255;63641;-55
2024/01/15 06:41:03;;;;;;;7.30;3.10;;;;;;;2.09;52.07;99011.52;105659;1255;61330;-63
2024/01/15 06:43:31;;;;;;;9.80;3.20;;;;;;;2.14;52.76;99006.35;105899;1252;62471;-63
2024/01/15 06:45:58;;;;;;;8.10;2.90;;;;;;;2.20;53.58;99001.77;105626;1257;60858;-62
2024/01/15 06:48:29;;;;;;;7.70;2.90;;;;;;;2.24;53.63;99002.41;105955;1252;60457;-62
2024/01/15 06:50:57;;;;;;;9.80;3.60;;;;;;;2.25;53.55;99000.09;105904;1251;64881;-60
2024/01/15 06:53:24;;;;;;;8.20;3.50;;;;;;;2.25;53.29;99000.45;105578;1251;61680;-64
2024/01/15 06:55:53;;;;;;;9.40;3.80;;;;;;;2.24;53.01;99003.95;106104;1253;62516;-72
2024/01/15 06:58:20;;;;;;;9.40;3.60;;;;;;;2.23;52.90;99010.25;105587;1256;60466;-70
2024/01/15 07:00:48;;;;;;;8.00;3.50;;;;;;;2.23;52.96;99009.21;106186;1256;60450;-74
2024/01/15 07:03:15;;;;;;;10.30;3.60;;;;;;;2.23;53.01;99009.20;105589;1252;64831;-70
2024/01/15 07:05:43;;;;;;;10.40;3.90;;;;;;;2.20;53.13;99001.95;105678;1256;60319;-69
2024/01/15 07:08:11;;;;;;;8.00;3.00;;;;;;;2.19;53.23;99000.13;105641;1251;62582;-64
2024/01/15 07:10:39;;;;;;;8.30;3.30;;;;;;;2.20;53.34;98998.50;105564;1254;60522;-65
2024/01/15 07:13:07;;;;;;;8.80;3.50;;;;;;;2.22;53.33;98992.84;105704;1257;60351;-70
2024/01/15 07:15:35;;;;;;;9.20;3.50;;;;;;;2.24;53.38;98989.23;105918;1254;64943;-68
2024/01/15 07:18:03;;;;;;;7.20;2.80;;;;;;;2.26;53.23;98985.80;105596;1256;61393;-63
2024/01/15 07:20:31;;;;;;;7.30;2.40;;;;;;;2.40;52.89;98983.34;105833;1251;63730;-65
2024/01/15 07:22:58;;;;;;;8.20;2.90;;;;;;;2.52;52.58;98978.33;105811;1251;60874;-67
2024/01/15 07:25:26;;;;;;;7.20;3.40;;;;;;;2.62;52.18;98977.14;105987;1252;60562;-61
2024/01/15 07:27:54;;;;;;;6.80;3.30;;;;;;;2.64;51.97;98972.48;105591;1252;63892;-68
2024/01/15 07:30:22;;;;;;;11.40;3.80;;;;;;;2.65;51.92;98966.68;105444;1251;61382;-69
2024/01/15 07:32:49;;;;;;;9.70;3.40;;;;;;;2.67;51.60;98961.69;109381;1251;63753;-62
2024/01/15 07:35:17;;;;;;;7.60;2.90;;;;;;;2.69;51.47;98961.37;109406;1251;58203;-65
2024/01/15 07:37:44;;;;;;;9.10;3.10;;;;;;;2.70;51.39;98960.67;106326;1256;60444;-66
2024/01/15 07:40:12;;;;;;;7.70;3.10;;;;;;;2.69;51.43;98965.03;106207;1257;64951;-67
2024/01/15 07:42:42;;;;;;;9.80;3.40;;;;;;;2.70;51.41;98964.42;105612;1257;61307;-71
2024/01/15 07:45:10;;;;;;;8.70;3.40;;;;;;;2.71;51.50;98961.73;105689;1257;62419;-65
2024/01/15 07:47:38;;;;;;;6.50;2.80;;;;;;;2.72;51.29;98956.67;105568;1251;60587;-62
2024/01/15 07:50:06;;;;;;;7.70;2.30;;;;;;;2.73;51.34;98952.79;105563;1252;60468;-64
2024/01/15 07:52:34;;;;;;;7.20;2.90;;;;;;;2.72;51.34;98951.48;105769;1251;65048;-71
2024/01/15 07:55:03;;;;;;;7.50;2.80;;;;;;;2.72;51.27;98950.80;105879;1257;62249;-68
2024/01/15 07:57:31;;;;;;;9.20;4.10;;;;;;;2.73;51.42;98949.36;105887;1252;64164;-63
2024/01/15 07:59:59;;;;;;;7.00;2.80;;;;;;;2.73;51.30;98949.64;105944;1258;60526;-70
2024/01/15 08:02:27;;;;;;;8.60;3.80;;;;;;;2.72;51.17;98952.32;105939;1257;60290;-61
2024/01/15 08:04:54;;;;;;;7.70;2.40;;;;;;;2.72;51.26;98952.35;105612;1250;64902;-65
2024/01/15 08:07:22;;;;;;;6.70;2.40;;;;;;;2.76;51.26;98953.61;105611;1251;61787;-65
2024/01/15 08:09:50;;;;;;;8.80;3.80;;;;;;;2.79;51.24;98955.48;105542;1257;62535;-63
2024/01/15 08:12:18;;;;;;;9.20;5.40;;;;;;;2.78;51.12;98951.70;106164;1257;59343;-64
2024/01/15 08:14:45;;;;;;;6.50;2.40;;;;;;;2.78;51.08;98947.78;105562;1251;60542;-63
2024/01/15 08:17:13;;;;;;;6.50;2.70;;;;;;;2.78;51.16;98949.81;105603;1251;63823;-60
2024/01/15 08:19:41;;;;;;;9.40;3.40;;;;;;;2.78;51.04;98950.68;105530;1255;62690;-61
2024/01/15 08:22:10;;;;;;;9.00;3.40;;;;;;;2.76;50.93;98956.36;105643;1256;62592;-65
2024/01/15 08:24:38;;;;;;;8.20;4.00;;;;;;;2.77;50.99;98952.87;105714;1257;60571;-60
2024/01/15 08:27:05;;;;;;;10.90;4.70;;;;;;;2.77;50.92;98955.11;105572;1257;60581;-62
2024/01/15 08:29:34;;;;;;;10.50;4.20;;;;;;;2.78;50.94;98950.22;105552;1253;73834;-65
2024/01/15 08:32:02;;;;;;;11.50;3.00;;;;;;;2.81;50.96;98954.66;106584;1256;60360;-67
2024/01/15 08:34:31;;;;;;;9.00;5.10;;;;;;;2.84;50.90;98958.45;105573;1257;62420;-65
2024/01/15 08:36:58;;;;;;;7.90;3.50;;;;;;;2.87;50.80;98955.15;105936;1256;60561;-60
2024/01/15 08:39:26;;;;;;;10.20;3.80;;;;;;;2.88;50.67;98956.13;105577;1257;60335;-61
2024/01/15 08:41:54;;;;;;;10.00;4.50;;;;;;;2.91;50.59;98951.89;106015;1256;66882;-61
2024/01/15 08:44:22;;;;;;;10.00;5.10;;;;;;;2.93;50.63;98947.38;106176;1256;60424;-60
2024/01/15 08:46:49;;;;;;;14.30;3.10;;;;;;;2.95;50.31;98948.30;105488;1256;62450;-60
2024/01/15 08:49:17;;;;;;;12.90;4.30;;;;;;;2.97;50.33;98947.29;105562;1257;61443;-68
2024/01/15 08:51:45;;;;;;;9.10;4.10;;;;;;;3.00;50.38;98946.77;105519;1258;60406;-66
2024/01/15 08:54:13;;;;;;;8.60;2.80;;;;;;;3.02;50.11;98944.73;105575;1256;64905;-59
2024/01/15 08:56:40;;;;;;;9.60;4.30;;;;;;;3.02;49.91;98946.60;105553;1257;61767;-62
2024/01/15 08:59:08;;;;;;;8.90;3.00;;;;;;;3.06;50.05;98938.73;105541;1254;63756;-60
2024/01/15 09:01:35;;;;;;;8.00;3.50;;;;;;;3.08;49.85;98929.36;105574;1251;60500;-60
2024/01/15 09:04:03;;;;;;;8.40;3.60;;;;;;;3.09;49.82;98933.30;105744;1256;60549;-61
2024/01/15 09:06:31;;;;;;;7.50;2.90;;;;;;;3.12;49.91;98926.63;105573;1251;63757;-61
2024/01/15 09:09:00;;;;;;;7.80;2.90;;;;;;;3.15;49.66;98928.29;105811;1256;63738;-58
2024/01/15 09:11:31;;;;;;;8.00;3.40;;;;;;;3.16;49.50;98930.65;105477;1257;63749;-62
2024/01/15 09:14:00;;;;;;;9.30;3.80;;;;;;;3.19;49.46;98925.67;105818;1256;60546;-61
2024/01/15 09:16:27;;;;;;;6.20;2.60;;;;;;;3.19;49.39;98921.11;105932;1251;60456;-59
2024/01/15 09:18:57;;;;;;;7.80;3.20;;;;;;;3.20;49.34;98917.73;105906;1256;65627;-59
2024/01/15 09:21:25;;;;;;;13.60;3.80;;;;;;;3.22;49.24;98917.99;105587;1256;61306;-59
2024/01/15 09:23:53;;;;;;;8.80;3.70;;;;;;;3.23;49.12;98917.21;105584;1251;71790;-60
2024/01/15 09:26:20;;;;;;;10.00;3.50;;;;;;;3.26;49.12;98916.09;106154;1257;60522;-60
2024/01/15 09:28:48;;;;;;;11.10;4.20;;;;;;;3.31;48.97;98913.34;106100;1256;60533;-61
2024/01/15 09:31:17;;;;;;;9.80;3.90;;;;;;;3.34;48.79;98907.54;105550;1251;64910;-60
2024/01/15 09:33:45;;;;;;;11.40;4.90;;;;;;;3.37;48.34;98905.58;105696;1258;61812;-60
2024/01/15 09:36:13;;;;;;;9.00;3.70;;;;;;;3.40;48.18;98898.81;105698;1255;72639;-58
2024/01/15 09:38:41;;;;;;;8.70;2.90;;;;;;;3.41;47.93;98900.11;105574;1251;60383;-60
2024/01/15 09:41:09;;;;;;;8.40;3.60;;;;;;;3.43;48.09;98899.45;105559;1251;60663;-59
2024/01/15 09:43:37;;;;;;;8.20;3.30;;;;;;;3.46;47.91;98897.50;105589;1252;65352;-60
2024/01/15 09:46:05;;;;;;;9.20;3.10;;;;;;;3.48;47.46;98892.69;105685;1264;71070;-62
2024/01/15 09:48:34;;;;;;;8.30;2.90;;;;;;;3.51;47.35;98890.83;105504;1257;63915;-62
2024/01/15 09:51:02;;;;;;;8.00;3.50;;;;;;;3.57;47.16;98885.94;105719;1256;60436;-65
2024/01/15 09:53:30;;;;;;;9.00;4.00;;;;;;;3.55;46.94;98879.63;106813;1257;59279;-62
2024/01/15 09:56:01;;;;;;;9.70;4.50;;;;;;;3.52;46.76;98877.23;105618;1257;65297;-62
2024/01/15 09:58:29;;;;;;;10.90;4.80;;;;;;;3.53;46.85;98879.63;105569;1258;69655;-59
2024/01/15 10:00:57;;;;;;;10.90;4.60;;;;;;;3.54;46.97;98876.92;105991;1256;62612;-57
2024/01/15 10:03:25;;;;;;;8.30;3.40;;;;;;;3.53;47.07;98875.24;105499;1257;60423;-59
2024/01/15 10:05:53;;;;;;;8.70;3.00;;;;;;;3.55;47.26;98883.12;105617;1252;60539;-57
2024/01/15 10:08:20;;;;;;;10.90;3.90;;;;;;;3.58;47.38;98877.83;105572;1257;66108;-60
2024/01/15 10:10:48;;;;;;;11.40;5.30;;;;;;;3.57;47.35;98877.05;105442;1252;60722;-59
2024/01/15 10:13:17;;;;;;;9.60;4.10;;;;;;;3.55;47.32;98876.33;105584;1256;64289;-61
2024/01/15 10:15:48;;;;;;;7.80;2.70;;;;;;;3.53;47.37;98877.02;105676;1256;60440;-60
2024/01/15 10:18:16;;;;;;;6.20;2.90;;;;;;;3.52;47.48;98872.77;107017;1254;60428;-58
2024/01/15 10:20:44;;;;;;;7.90;3.00;;;;;;;3.49;47.34;98870.16;105266;1252;337723;-59
2024/01/15 10:34:26;;;;;;;10.10;4.70;;;;;;;3.46;47.45;98864.80;103234;1285;604383;-62
2024/01/15 10:36:57;;;;;;;10.30;4.30;;;;;;;3.96;46.53;98857.48;104354;1265;149153;-60
2024/01/15 10:39:25;;;;;;;13.90;3.60;;;;;;;3.91;46.75;98850.52;104663;1268;59199;-59
2024/01/15 10:41:52;;;;;;;10.30;3.30;;;;;;;3.85;46.85;98851.69;105259;1264;62436;-57
2024/01/15 10:44:20;;;;;;;8.60;3.30;;;;;;;3.78;47.00;98842.39;105149;1266;70301;-60
2024/01/15 10:46:48;;;;;;;10.30;4.60;;;;;;;3.75;47.27;98845.19;104661;1267;63093;-59
2024/01/15 10:49:16;;;;;;;7.90;3.50;;;;;;;3.72;47.36;98837.27;104669;1264;59728;-60
2024/01/15 10:51:44;;;;;;;10.30;2.90;;;;;;;3.68;47.26;98831.46;105269;1266;59584;-60
2024/01/15 10:54:14;;;;;;;7.20;3.00;;;;;;;3.65;47.29;98825.35;104479;1264;62623;-60
2024/01/15 10:56:42;;;;;;;11.10;4.20;;;;;;;3.60;47.40;98822.60;104706;1266;61585;-61
2024/01/15 10:59:10;;;;;;;7.70;3.90;;;;;;;3.56;47.52;98819.23;104538;1266;62460;-60
2024/01/15 11:01:38;;;;;;;9.40;3.50;;;;;;;3.53;47.79;98808.88;104640;1266;59807;-61
2024/01/15 11:04:05;;;;;;;11.40;4.70;;;;;;;3.50;47.85;98803.86;104649;1268;59656;-59
2024/01/15 11:06:44;;;;;;;10.20;4.10;;;;;;;3.48;47.81;98799.23;104648;1266;64154;-62
2024/01/15 11:09:13;;;;;;;7.90;3.50;;;;;;;3.47;48.03;98795.96;104601;1268;60705;-58
2024/01/15 11:11:45;;;;;;;7.90;2.80;;;;;;;3.47;48.02;98793.55;104655;1266;64775;-61
2024/01/15 11:14:35;;;;;;;8.60;2.70;;;;;;;3.45;48.13;98793.06;104680;1263;59733;-62
2024/01/15 11:17:03;;;;;;;11.50;4.80;;;;;;;3.43;48.31;98792.79;104940;1268;59625;-62
2024/01/15 11:19:44;;;;;;;8.70;3.60;;;;;;;3.44;48.33;98792.54;104942;1268;67562;-60
2024/01/15 11:22:33;;;;;;;9.10;3.20;;;;;;;3.43;48.34;98787.27;104662;1269;71428;-61
2024/01/15 11:25:14;;;;;;;8.30;4.20;;;;;;;3.42;48.22;98784.78;104651;1268;73647;-60
2024/01/15 11:27:52;;;;;;;10.80;4.00;;;;;;;3.41;48.48;98778.96;104656;1263;59703;-59
2024/01/15 11:30:25;;;;;;;9.50;3.30;;;;;;;3.39;48.69;98776.33;104555;1265;59572;-59
2024/01/15 11:32:53;;;;;;;9.50;3.70;;;;;;;3.38;48.67;98770.52;105213;1266;62967;-59
2024/01/15 11:35:21;;;;;;;12.40;4.00;;;;;;;3.38;48.77;98769.12;104594;1268;62432;-60
2024/01/15 11:37:57;;;;;;;9.70;4.00;;;;;;;3.37;48.65;98767.96;105268;1268;62524;-59
2024/01/15 11:40:34;;;;;;;14.10;4.50;;;;;;;3.36;48.61;98774.45;105228;1268;59891;-58
2024/01/15 11:43:02;;;;;;;11.20;5.50;;;;;;;3.34;48.75;98773.23;105478;1256;59727;-59
2024/01/15 11:45:30;;;;;;;11.10;4.40;;;;;;;3.33;48.72;98776.05;106254;1259;63269;-60
2024/01/15 11:48:13;;;;;;;12.10;5.20;;;;;;;3.31;48.79;98778.31;105324;1262;71349;-60